CheckWX is a tool to help pilots better visualize weather data.  It is not intended as a substitute for an official pre-flight weather briefing.

03:46:48 UTC

KLBB TAF
Lubbock Preston Smith International Airport
Lubbock, Texas, USA
KLBB 250541Z 2506/2606 12015KT P6SM BKN200 FM251200 05011KT P6SM SCT040 OVC100 FM251500 05011KT P6SM BKN020 OVC035 FM251800 04015KT 6SM -SHRA BKN030 FM260000 01015KT P6SM BKN045 PROB30 2600/2606 4SM TSRA OVC030CB

May-25@
06:00 UTC

May-25 @ 06:00 UTC

May-25@
12:00 UTC

May-25 @ 12:00 UTC

TAF KLBB 250541Z 2506/2606 12015KT P6SM BKN200

Expired

Wind
  • 120° at 15 KTS
Cloud Levels
  • Broken at 20,000' AGL

May-25@
12:00 UTC

May-25 @ 12:00 UTC

May-25@
15:00 UTC

May-25 @ 15:00 UTC

FM251200 05011KT P6SM SCT040 OVC100

Expired

Wind
  • 050° at 11 KTS
Cloud Levels
  • Scattered at 4,000' AGL
  • Overcast at 10,000' AGL

May-25@
15:00 UTC

May-25 @ 15:00 UTC

May-25@
18:00 UTC

May-25 @ 18:00 UTC

FM251500 05011KT P6SM BKN020 OVC035

Expired

Wind
  • 050° at 11 KTS
Cloud Levels
  • Broken at 2,000' AGL
  • Overcast at 3,500' AGL

May-25@
18:00 UTC

May-25 @ 18:00 UTC

May-26@
00:00 UTC

May-26 @ 00:00 UTC

FM251800 04015KT 6SM -SHRA BKN030

Expired

Wind
  • 040° at 15 KTS
Conditions
Light Showers, Rain
Cloud Levels
  • Broken at 3,000' AGL

May-26@
00:00 UTC

May-26 @ 00:00 UTC

May-26@
06:00 UTC

May-26 @ 06:00 UTC

FM260000 01015KT P6SM BKN045

From

From Standard forecast or significant change

Wind
  • 010° at 15 KTS
Cloud Levels
  • Broken at 4,500' AGL

May-26@
00:00 UTC

May-26 @ 00:00 UTC

May-26@
06:00 UTC

May-26 @ 06:00 UTC

PROB30 2600/2606 4SM TSRA OVC030CB

Probable - 30% Likelihood

Probable - 30% Likelihood during this time.

Conditions
Thunderstorm, Rain
Cloud Levels
  • Overcast at 3,000' AGL